Time;durP1;ratioP1;P1;durP2;ratioP2;P2;SDS_P1;SDS_P2;PMS_P1;PMS_P2;Temp;Humidity;BMP_temperature;BMP_pressure;BME280_temperature;BME280_humidity;BME280_pressure;Samples;Min_cycle;Max_cycle;Signal;HPM_P1;HPM_P2
2022/11/05 00:09:32;;;;;;;11.93;4.43;;;7.10;99.90;;;;;;5088787;28;20040;-82
2022/11/05 00:17:32;;;;;;;8.90;4.38;;;7.20;99.90;;;;;;5088575;28;20121;-82
2022/11/05 00:19:58;;;;;;;10.43;4.05;;;7.10;99.90;;;;;;5073078;28;20111;-82
2022/11/05 00:25:15;;;;;;;12.23;4.03;;;7.10;99.90;;;;;;5113722;27;20405;-82
2022/11/05 00:27:49;;;;;;;10.95;4.28;;;7.10;99.90;;;;;;5072993;28;20035;-82
2022/11/05 00:30:20;;;;;;;12.50;4.38;;;7.10;99.90;;;;;;5089686;28;20157;-82
2022/11/05 00:32:47;;;;;;;8.82;4.20;;;7.10;99.90;;;;;;5089138;28;20028;-82
2022/11/05 00:35:14;;;;;;;10.38;3.78;;;7.10;99.90;;;;;;5093996;28;20036;-82
2022/11/05 00:37:39;;;;;;;9.50;4.28;;;7.00;99.90;;;;;;5076758;28;20039;-82
2022/11/05 00:40:06;;;;;;;11.63;4.07;;;7.00;99.90;;;;;;5093705;28;20032;-82
2022/11/05 00:45:16;;;;;;;10.63;4.10;;;7.00;99.90;;;;;;5117380;27;20036;-82
2022/11/05 00:50:26;;;;;;;9.38;3.90;;;7.00;99.90;;;;;;5093849;28;20481;-82
2022/11/05 00:52:54;;;;;;;7.78;3.00;;;7.00;99.90;;;;;;5093508;28;20043;-82
2022/11/05 00:55:39;;;;;;;6.10;2.20;;;7.10;99.90;;;;;;5093835;28;20562;-82
2022/11/05 00:58:07;;;;;;;6.57;2.40;;;7.00;99.90;;;;;;5093899;28;20040;-82
2022/11/05 01:00:35;;;;;;;7.53;2.85;;;7.00;99.90;;;;;;5093602;28;20051;-82
2022/11/05 01:03:04;;;;;;;8.18;3.30;;;7.00;99.90;;;;;;5093324;28;20050;-82
2022/11/05 01:05:31;;;;;;;9.50;3.20;;;7.00;99.90;;;;;;5076783;28;20048;-81
2022/11/05 01:07:56;;;;;;;8.82;3.33;;;7.00;99.90;;;;;;5093796;28;20040;-81
2022/11/05 01:10:22;;;;;;;9.70;3.15;;;7.10;99.90;;;;;;5093548;28;20540;-82
2022/11/05 01:12:48;;;;;;;7.63;3.00;;;7.10;99.90;;;;;;5093026;28;20059;-81
2022/11/05 01:15:15;;;;;;;8.80;3.47;;;7.20;99.90;;;;;;5093471;28;20100;-82
2022/11/05 01:17:40;;;;;;;8.70;3.47;;;7.20;99.90;;;;;;5093688;28;20454;-82
2022/11/05 01:20:06;;;;;;;8.77;3.05;;;7.20;99.90;;;;;;5076543;28;20564;-82
2022/11/05 01:22:31;;;;;;;8.63;2.97;;;7.20;99.90;;;;;;5092967;28;20405;-82
2022/11/05 01:24:57;;;;;;;8.40;3.33;;;7.20;99.90;;;;;;5076251;28;20036;-82
2022/11/05 01:27:23;;;;;;;8.05;2.97;;;7.20;99.90;;;;;;5093557;28;20122;-82
2022/11/05 01:29:48;;;;;;;7.95;2.95;;;7.20;99.90;;;;;;5093458;28;20523;-82
2022/11/05 01:32:14;;;;;;;7.55;2.83;;;7.20;99.90;;;;;;5092783;28;20662;-82
2022/11/05 01:34:39;;;;;;;7.85;3.25;;;7.10;99.90;;;;;;5092978;28;20067;-82
2022/11/05 01:37:05;;;;;;;8.55;2.75;;;7.10;99.90;;;;;;5092903;28;20040;-82
2022/11/05 01:39:30;;;;;;;7.10;2.22;;;7.00;99.90;;;;;;5093184;28;20039;-82
2022/11/05 01:41:57;;;;;;;7.32;2.45;;;7.00;99.90;;;;;;5093006;28;20036;-82
2022/11/05 01:44:54;;;;;;;8.70;2.40;;;6.90;99.90;;;;;;5092665;28;20130;-82
2022/11/05 01:47:28;;;;;;;11.98;2.60;;;6.90;99.90;;;;;;5092920;28;20089;-82
2022/11/05 01:49:56;;;;;;;9.50;2.72;;;6.80;99.90;;;;;;5075776;28;20047;-82
2022/11/05 01:52:23;;;;;;;9.65;2.72;;;6.80;99.90;;;;;;5092489;28;20044;-82
2022/11/05 01:54:49;;;;;;;10.35;2.70;;;6.80;99.90;;;;;;5092688;28;20047;-82
2022/11/05 01:57:15;;;;;;;9.48;3.50;;;6.80;99.90;;;;;;5092611;28;20056;-82
2022/11/05 01:59:44;;;;;;;11.07;2.92;;;6.80;99.90;;;;;;5075899;28;20036;-83
2022/11/05 02:02:10;;;;;;;10.88;3.13;;;6.80;99.90;;;;;;5075187;28;20036;-82
2022/11/05 02:04:50;;;;;;;9.77;3.40;;;6.90;99.90;;;;;;5092518;28;20077;-81
2022/11/05 02:07:17;;;;;;;7.22;2.65;;;6.90;99.90;;;;;;5075917;28;20385;-82
2022/11/05 02:09:56;;;;;;;8.57;2.83;;;6.90;99.90;;;;;;5092543;28;20032;-82
2022/11/05 02:12:22;;;;;;;5.68;2.38;;;6.90;99.90;;;;;;5075374;28;20047;-82
2022/11/05 02:14:47;;;;;;;8.63;3.10;;;7.00;99.90;;;;;;5092203;28;20123;-82
2022/11/05 02:17:38;;;;;;;9.73;2.90;;;6.90;99.90;;;;;;5075342;28;20123;-82
2022/11/05 02:20:30;;;;;;;7.82;3.25;;;6.90;99.90;;;;;;5092298;28;20032;-82
2022/11/05 02:23:32;;;;;;;9.57;2.85;;;6.90;99.90;;;;;;5092024;28;20040;-82
2022/11/05 02:26:18;;;;;;;7.23;2.40;;;6.90;99.90;;;;;;5092435;28;20512;-82
2022/11/05 02:29:06;;;;;;;11.05;3.10;;;6.90;99.90;;;;;;5092388;28;20417;-82
2022/11/05 02:31:37;;;;;;;6.35;2.65;;;6.90;99.90;;;;;;5074932;28;20075;-82
2022/11/05 02:34:16;;;;;;;8.55;2.90;;;6.90;99.90;;;;;;5091885;28;20405;-82
2022/11/05 02:36:48;;;;;;;10.38;2.80;;;6.90;99.90;;;;;;5091865;28;20075;-82
2022/11/05 02:39:52;;;;;;;6.28;2.58;;;6.80;99.90;;;;;;5091866;28;20068;-82
2022/11/05 02:42:42;;;;;;;6.65;2.40;;;6.70;99.90;;;;;;5066792;28;20410;-82
2022/11/05 02:45:39;;;;;;;8.20;2.08;;;6.70;99.90;;;;;;5050333;28;20518;-82
2022/11/05 02:48:40;;;;;;;8.27;2.90;;;6.70;99.90;;;;;;5081984;28;20058;-82
2022/11/05 02:51:32;;;;;;;8.57;2.65;;;6.60;99.90;;;;;;5074667;28;20047;-82
2022/11/05 02:54:13;;;;;;;7.93;2.28;;;6.50;99.90;;;;;;5125161;27;20116;-82
2022/11/05 02:56:42;;;;;;;11.32;3.30;;;6.50;99.90;;;;;;5091133;28;20448;-82
2022/11/05 02:59:08;;;;;;;8.95;2.70;;;6.50;99.90;;;;;;5091590;28;20119;-82
2022/11/05 03:01:35;;;;;;;7.13;2.40;;;6.50;99.90;;;;;;5091104;28;20067;-82
2022/11/05 03:04:05;;;;;;;8.32;2.40;;;6.50;99.90;;;;;;5074198;28;20040;-82
2022/11/05 03:06:48;;;;;;;8.05;2.60;;;6.40;99.90;;;;;;5091592;28;20129;-82
2022/11/05 03:09:33;;;;;;;9.15;2.60;;;6.40;99.90;;;;;;5074674;28;20100;-82
2022/11/05 03:12:23;;;;;;;9.10;3.08;;;6.40;99.90;;;;;;5091079;28;20040;-82
2022/11/05 03:14:58;;;;;;;8.85;2.78;;;6.50;99.90;;;;;;5074375;28;20062;-82
2022/11/05 03:17:51;;;;;;;8.15;2.65;;;6.40;99.90;;;;;;5090925;28;20054;-82
2022/11/05 03:20:41;;;;;;;8.07;2.53;;;6.40;99.90;;;;;;5091268;28;20119;-82
2022/11/05 03:23:19;;;;;;;6.82;2.63;;;6.40;99.90;;;;;;5090724;28;20044;-82
2022/11/05 03:25:58;;;;;;;7.65;2.17;;;6.40;99.90;;;;;;5074162;28;20054;-82
2022/11/05 03:28:27;;;;;;;8.48;2.63;;;6.40;99.90;;;;;;5074140;28;20126;-82
2022/11/05 03:30:55;;;;;;;9.27;2.30;;;6.50;99.90;;;;;;5090967;28;20090;-82
2022/11/05 03:33:25;;;;;;;7.80;2.00;;;6.40;99.90;;;;;;5090544;28;20044;-82
2022/11/05 03:35:54;;;;;;;7.65;2.30;;;6.40;99.90;;;;;;5074085;28;20048;-82
2022/11/05 03:38:29;;;;;;;7.88;3.05;;;6.40;99.90;;;;;;5091032;28;20381;-82
2022/11/05 03:41:00;;;;;;;9.80;2.28;;;6.40;99.90;;;;;;5091175;28;20093;-82
2022/11/05 03:43:31;;;;;;;7.38;2.20;;;6.30;99.90;;;;;;5090483;28;20044;-82
2022/11/05 03:46:16;;;;;;;7.65;2.28;;;6.30;99.90;;;;;;5090780;28;20101;-82
2022/11/05 03:48:46;;;;;;;6.65;2.13;;;6.30;99.90;;;;;;5090662;28;20044;-82
2022/11/05 03:51:49;;;;;;;5.03;1.95;;;6.30;99.90;;;;;;5073813;28;20043;-82
2022/11/05 03:54:15;;;;;;;7.65;2.17;;;6.30;99.90;;;;;;5073377;28;20485;-82
2022/11/05 03:56:46;;;;;;;8.95;2.33;;;6.30;99.90;;;;;;5090629;28;20040;-82
2022/11/05 03:59:13;;;;;;;6.57;2.20;;;6.30;99.90;;;;;;5090496;28;20497;-82
2022/11/05 04:01:40;;;;;;;8.63;2.53;;;6.30;99.90;;;;;;5090507;28;20032;-82
2022/11/05 04:04:06;;;;;;;6.78;2.20;;;6.30;99.90;;;;;;5090224;28;20040;-82
2022/11/05 04:14:44;;;;;;;7.80;2.45;;;6.20;99.90;;;;;;5094539;28;20135;-82
2022/11/05 04:17:09;;;;;;;6.75;1.80;;;6.20;99.90;;;;;;5077576;28;20127;-82
2022/11/05 04:25:07;;;;;;;5.13;1.90;;;6.10;99.90;;;;;;5094364;28;20040;-81
2022/11/05 04:27:33;;;;;;;4.15;2.13;;;6.20;99.90;;;;;;5094365;28;20409;-82
2022/11/05 04:30:17;;;;;;;12.38;2.70;;;6.10;99.90;;;;;;5094272;28;20032;-82
2022/11/05 04:33:01;;;;;;;6.10;2.42;;;6.10;99.90;;;;;;5094059;28;20040;-82
2022/11/05 04:35:35;;;;;;;7.28;2.08;;;6.10;99.90;;;;;;5094239;28;20402;-82
2022/11/05 04:38:01;;;;;;;5.68;2.10;;;6.10;99.90;;;;;;5077365;28;20043;-82
2022/11/05 04:40:27;;;;;;;6.03;1.98;;;6.10;99.90;;;;;;5094194;28;20036;-82
2022/11/05 04:42:57;;;;;;;6.03;2.08;;;6.10;99.90;;;;;;5093728;28;20040;-82
2022/11/05 04:45:24;;;;;;;5.93;2.05;;;6.10;99.90;;;;;;5077222;28;20463;-82
2022/11/05 04:47:50;;;;;;;8.45;2.20;;;6.00;99.90;;;;;;5094019;28;20137;-82
2022/11/05 04:50:16;;;;;;;7.07;2.17;;;6.10;99.90;;;;;;5094254;28;20186;-82
2022/11/05 04:52:41;;;;;;;8.52;2.58;;;6.00;99.90;;;;;;5093646;28;20047;-82
2022/11/05 04:55:08;;;;;;;7.25;2.17;;;6.00;99.90;;;;;;5077080;28;20054;-82
2022/11/05 04:57:33;;;;;;;5.47;2.17;;;6.00;99.90;;;;;;5093825;28;20044;-82
2022/11/05 04:59:59;;;;;;;8.63;2.35;;;6.00;99.90;;;;;;5093859;28;20042;-82
2022/11/05 05:02:25;;;;;;;8.38;2.25;;;6.00;99.90;;;;;;5093499;28;20036;-82
2022/11/05 05:04:50;;;;;;;6.03;2.33;;;6.00;99.90;;;;;;5076692;28;20044;-82
2022/11/05 05:07:16;;;;;;;9.45;2.30;;;6.00;99.90;;;;;;5093661;28;20047;-82
2022/11/05 05:09:41;;;;;;;7.55;2.58;;;6.00;99.90;;;;;;5093823;28;20050;-82
2022/11/05 05:12:07;;;;;;;9.05;2.83;;;6.00;99.90;;;;;;5093453;28;20050;-82
2022/11/05 05:14:33;;;;;;;6.10;2.08;;;6.00;99.90;;;;;;5093704;28;20130;-82
2022/11/05 05:16:58;;;;;;;8.13;3.00;;;6.00;99.90;;;;;;5093523;28;20071;-82
2022/11/05 05:19:24;;;;;;;6.28;2.50;;;6.00;99.90;;;;;;5110010;28;20036;-82
2022/11/05 05:21:50;;;;;;;9.15;3.45;;;6.00;99.90;;;;;;5093353;28;20089;-82
2022/11/05 05:24:20;;;;;;;7.03;2.92;;;6.00;99.90;;;;;;5093222;28;20036;-82
2022/11/05 05:26:50;;;;;;;6.13;2.03;;;5.90;99.90;;;;;;5093527;28;20400;-82
2022/11/05 05:29:16;;;;;;;8.38;2.50;;;5.90;99.90;;;;;;5127859;27;20093;-82
2022/11/05 05:31:42;;;;;;;8.27;2.00;;;5.90;99.90;;;;;;5092991;28;20047;-82
2022/11/05 05:34:13;;;;;;;10.35;2.72;;;5.90;99.90;;;;;;5076042;28;20039;-82
2022/11/05 05:36:38;;;;;;;8.90;2.58;;;5.90;99.90;;;;;;5109995;28;20101;-82
2022/11/05 05:39:06;;;;;;;6.95;2.22;;;5.90;99.90;;;;;;5093278;28;20082;-82
2022/11/05 05:41:32;;;;;;;6.60;2.47;;;5.80;99.90;;;;;;5093106;28;20036;-82
2022/11/05 05:43:57;;;;;;;8.68;2.90;;;5.80;99.90;;;;;;5075653;28;20032;-82
2022/11/05 05:46:23;;;;;;;7.85;2.33;;;5.80;99.90;;;;;;5093251;28;20048;-82
2022/11/05 05:48:51;;;;;;;7.22;2.40;;;5.80;99.90;;;;;;5092838;28;20039;-82
2022/11/05 05:51:18;;;;;;;8.68;3.05;;;5.80;99.90;;;;;;5109962;28;20455;-82
2022/11/05 05:53:44;;;;;;;8.65;2.55;;;5.80;99.90;;;;;;5075721;28;20040;-82
2022/11/05 05:56:09;;;;;;;8.95;2.65;;;5.80;99.90;;;;;;5092714;28;20089;-82
2022/11/05 05:58:38;;;;;;;6.60;2.72;;;5.80;99.90;;;;;;5075857;28;20039;-82
2022/11/05 06:01:14;;;;;;;8.68;2.60;;;5.80;99.90;;;;;;5092697;28;20093;-82
2022/11/05 06:03:40;;;;;;;7.28;2.80;;;5.70;99.90;;;;;;5092303;28;20131;-82
2022/11/05 06:06:08;;;;;;;7.53;2.38;;;5.70;99.90;;;;;;5092468;28;20071;-82
2022/11/05 06:08:34;;;;;;;6.28;2.83;;;5.80;99.90;;;;;;5092537;28;20043;-82
2022/11/05 06:11:02;;;;;;;8.75;2.97;;;5.70;99.90;;;;;;5075663;28;20040;-82
2022/11/05 06:13:28;;;;;;;6.68;2.63;;;5.80;99.90;;;;;;5092304;28;20048;-82
2022/11/05 06:16:02;;;;;;;9.25;2.85;;;5.80;99.90;;;;;;5092253;28;20046;-82
2022/11/05 06:18:28;;;;;;;7.60;2.60;;;5.80;99.90;;;;;;5092360;28;20079;-82
2022/11/05 06:20:54;;;;;;;8.60;2.70;;;5.80;99.90;;;;;;5092249;28;20085;-82
2022/11/05 06:23:20;;;;;;;10.35;3.55;;;5.80;99.90;;;;;;5108864;28;20036;-82
2022/11/05 06:25:46;;;;;;;9.52;2.92;;;5.80;99.90;;;;;;5075263;28;20051;-82
2022/11/05 06:28:11;;;;;;;7.80;2.83;;;5.90;99.90;;;;;;5092263;28;20036;-82
2022/11/05 06:30:37;;;;;;;8.23;3.30;;;5.90;99.90;;;;;;5074578;28;20552;-82
2022/11/05 06:33:05;;;;;;;7.20;2.55;;;5.80;99.90;;;;;;5091538;28;20504;-81
2022/11/05 06:35:32;;;;;;;8.50;2.85;;;5.90;99.90;;;;;;5075281;28;20072;-82
2022/11/05 06:38:02;;;;;;;10.18;3.20;;;5.90;99.90;;;;;;5091837;28;20066;-82
2022/11/05 06:40:28;;;;;;;9.43;2.90;;;5.90;99.90;;;;;;5091905;28;20452;-81
2022/11/05 06:42:54;;;;;;;9.10;3.55;;;5.90;99.90;;;;;;5091403;28;20085;-82
2022/11/05 06:45:20;;;;;;;8.80;3.38;;;6.00;99.90;;;;;;5091811;28;20040;-81
2022/11/05 06:47:45;;;;;;;8.07;2.38;;;6.00;99.90;;;;;;5091874;28;20036;-81
2022/11/05 06:50:11;;;;;;;8.98;3.15;;;6.00;99.90;;;;;;5091712;28;20454;-81
2022/11/05 06:52:36;;;;;;;9.32;3.25;;;6.00;99.90;;;;;;5091266;28;20435;-81
2022/11/05 06:55:02;;;;;;;7.70;3.38;;;6.10;99.90;;;;;;5091527;28;20039;-81
2022/11/05 06:57:28;;;;;;;11.18;3.55;;;6.10;99.90;;;;;;5091405;28;20070;-81
2022/11/05 06:59:53;;;;;;;10.73;3.53;;;6.20;99.90;;;;;;5087128;28;20032;-81
2022/11/05 07:02:19;;;;;;;8.93;3.53;;;6.20;99.90;;;;;;5073341;28;20393;-81
2022/11/05 07:04:44;;;;;;;10.90;3.45;;;6.20;99.90;;;;;;5090570;28;20084;-82
2022/11/05 07:07:10;;;;;;;9.70;2.80;;;6.20;99.90;;;;;;5090993;28;20180;-82
2022/11/05 07:09:39;;;;;;;8.15;3.55;;;6.20;99.90;;;;;;5090131;28;20172;-81
2022/11/05 07:12:05;;;;;;;9.75;3.50;;;6.20;99.90;;;;;;5090666;28;20044;-81
2022/11/05 07:14:31;;;;;;;8.70;3.38;;;6.30;99.90;;;;;;5073983;28;20044;-82
2022/11/05 07:16:57;;;;;;;6.97;2.92;;;6.30;99.90;;;;;;5073802;28;20134;-82
2022/11/05 07:19:23;;;;;;;7.45;2.90;;;6.30;99.90;;;;;;5073921;28;20071;-81
2022/11/05 07:21:49;;;;;;;9.40;3.75;;;6.30;99.90;;;;;;5090673;28;20039;-82
2022/11/05 07:24:15;;;;;;;8.10;2.95;;;6.30;99.90;;;;;;5090357;28;20040;-81
2022/11/05 07:26:41;;;;;;;10.20;3.38;;;6.40;99.90;;;;;;5090501;28;20051;-81
2022/11/05 07:29:07;;;;;;;8.38;3.63;;;6.40;99.90;;;;;;5090390;28;20100;-81
2022/11/05 07:31:32;;;;;;;11.80;3.85;;;6.40;99.90;;;;;;5073685;28;20047;-81
2022/11/05 07:33:58;;;;;;;12.55;3.50;;;6.40;99.90;;;;;;5073347;28;20051;-81
2022/11/05 07:36:24;;;;;;;8.70;3.58;;;6.40;99.90;;;;;;5090476;28;20079;-81
2022/11/05 07:38:50;;;;;;;8.48;3.35;;;6.50;99.90;;;;;;5090319;28;20032;-81
2022/11/05 07:41:16;;;;;;;7.43;2.60;;;6.50;99.90;;;;;;5073464;28;20081;-82
2022/11/05 07:43:41;;;;;;;9.80;3.88;;;6.60;99.90;;;;;;5090208;28;20040;-81
2022/11/05 07:46:07;;;;;;;9.02;4.22;;;6.60;99.90;;;;;;5090176;28;20497;-82
2022/11/05 07:48:32;;;;;;;10.65;6.00;;;6.70;99.90;;;;;;5090344;28;20051;-81
2022/11/05 07:50:58;;;;;;;12.60;6.13;;;6.70;99.90;;;;;;5073601;28;20449;-81
2022/11/05 07:53:24;;;;;;;12.13;4.65;;;6.80;99.90;;;;;;5072151;28;20500;-81
2022/11/05 07:55:51;;;;;;;6.15;2.83;;;6.90;99.90;;;;;;5090729;28;20189;-81
2022/11/05 07:58:17;;;;;;;9.40;4.00;;;6.90;99.90;;;;;;5090634;28;20496;-82
2022/11/05 08:00:42;;;;;;;8.30;3.85;;;7.00;99.90;;;;;;5073553;28;20047;-82
2022/11/05 08:03:13;;;;;;;11.80;3.60;;;7.00;99.90;;;;;;5090217;28;20467;-81
2022/11/05 08:05:43;;;;;;;8.90;3.60;;;7.00;99.90;;;;;;5074053;28;20492;-81
2022/11/05 08:08:10;;;;;;;9.10;4.40;;;7.10;99.90;;;;;;5074032;28;20131;-82
2022/11/05 08:10:37;;;;;;;10.18;3.97;;;7.10;99.90;;;;;;5090421;28;20121;-82
2022/11/05 08:13:03;;;;;;;9.50;4.13;;;7.20;99.90;;;;;;5073310;28;20051;-82
2022/11/05 08:15:29;;;;;;;10.23;4.15;;;7.20;99.90;;;;;;5090743;28;20044;-82
2022/11/05 08:18:03;;;;;;;9.82;3.97;;;7.30;99.90;;;;;;5073525;28;20408;-82
2022/11/05 08:20:29;;;;;;;9.57;4.13;;;7.40;99.90;;;;;;5072912;28;20036;-82
2022/11/05 08:22:55;;;;;;;8.27;3.75;;;7.50;99.90;;;;;;5089644;28;20043;-82
2022/11/05 08:25:22;;;;;;;10.13;4.22;;;7.50;99.90;;;;;;5073541;28;20128;-82
2022/11/05 08:27:54;;;;;;;9.18;4.38;;;7.60;99.90;;;;;;5090224;28;20036;-82
2022/11/05 08:30:20;;;;;;;;;;;7.70;99.90;;;;;;5074004;28;20071;-82
2022/11/05 08:32:45;;;;;;;9.30;3.65;;;7.70;99.90;;;;;;5089827;28;19966;-81
2022/11/05 08:35:11;;;;;;;10.88;3.92;;;7.80;99.90;;;;;;5073344;28;20044;-82
2022/11/05 08:37:36;;;;;;;8.02;3.50;;;7.80;99.90;;;;;;5090159;28;20048;-82
2022/11/05 08:40:02;;;;;;;8.73;3.45;;;7.80;99.90;;;;;;5090141;28;20036;-81
2022/11/05 08:42:28;;;;;;;9.45;3.97;;;7.80;99.90;;;;;;5073070;28;20036;-81
2022/11/05 08:44:53;;;;;;;9.98;3.17;;;7.90;99.90;;;;;;5090092;28;20131;-82
2022/11/05 08:47:19;;;;;;;8.48;3.67;;;7.90;99.90;;;;;;5090176;28;20040;-82
2022/11/05 08:49:44;;;;;;;9.75;4.10;;;8.00;99.90;;;;;;5073277;28;20131;-82
2022/11/05 08:52:10;;;;;;;11.93;3.90;;;8.00;99.90;;;;;;5089780;28;20047;-82
2022/11/05 08:54:35;;;;;;;12.38;4.30;;;8.10;99.90;;;;;;5092985;28;20036;-82
2022/11/05 08:57:01;;;;;;;10.15;4.47;;;8.10;99.90;;;;;;5093781;28;20044;-82
2022/11/05 08:59:28;;;;;;;11.27;3.85;;;8.20;99.90;;;;;;5076870;28;20040;-82
2022/11/05 09:01:54;;;;;;;9.40;4.57;;;8.30;99.90;;;;;;5093769;28;20191;-82
2022/11/05 09:04:19;;;;;;;8.10;3.83;;;8.40;99.90;;;;;;5076561;28;20107;-82
2022/11/05 09:06:45;;;;;;;11.80;3.67;;;8.50;99.90;;;;;;5093984;28;20040;-82
2022/11/05 09:09:10;;;;;;;10.13;4.50;;;8.60;99.90;;;;;;5076911;28;20588;-82
2022/11/05 09:11:36;;;;;;;11.25;4.55;;;8.70;99.90;;;;;;5076598;28;20100;-82
2022/11/05 09:14:02;;;;;;;10.57;3.67;;;8.70;99.90;;;;;;5076227;28;20042;-82
2022/11/05 09:16:28;;;;;;;10.73;4.82;;;8.80;99.90;;;;;;5076763;28;20032;-82
2022/11/05 09:18:55;;;;;;;9.85;4.00;;;8.90;99.90;;;;;;5093501;28;20619;-81
2022/11/05 09:21:20;;;;;;;10.70;4.50;;;8.90;99.90;;;;;;5093747;28;20040;-82
2022/11/05 09:23:46;;;;;;;8.13;4.03;;;9.00;99.90;;;;;;5093207;28;20504;-82
2022/11/05 09:26:13;;;;;;;8.32;3.67;;;9.10;99.90;;;;;;5076310;28;20490;-82
2022/11/05 09:28:39;;;;;;;8.60;4.10;;;9.20;99.90;;;;;;5076032;28;20405;-82
2022/11/05 09:31:07;;;;;;;10.15;3.85;;;9.30;99.90;;;;;;5090438;28;20048;-82
2022/11/05 09:33:34;;;;;;;9.75;3.45;;;9.40;99.90;;;;;;5089614;28;20403;-82
2022/11/05 09:36:01;;;;;;;10.50;3.97;;;9.50;99.90;;;;;;5089229;28;20044;-82
2022/11/05 09:38:26;;;;;;;7.78;3.63;;;9.60;99.90;;;;;;5073021;28;20425;-82
2022/11/05 09:41:07;;;;;;;9.38;3.67;;;9.70;99.90;;;;;;5089783;28;20036;-82
2022/11/05 09:43:42;;;;;;;7.47;2.63;;;9.70;99.90;;;;;;5089095;28;20787;-82
2022/11/05 09:46:17;;;;;;;11.88;4.38;;;9.80;99.90;;;;;;5090144;28;20032;-82
2022/11/05 09:48:47;;;;;;;8.18;3.90;;;9.80;99.90;;;;;;5075884;28;20607;-82
2022/11/05 09:51:15;;;;;;;9.07;4.05;;;9.90;99.90;;;;;;5092772;28;20043;-82
2022/11/05 09:53:41;;;;;;;8.57;3.25;;;10.00;99.90;;;;;;5075449;28;20044;-82
2022/11/05 09:56:21;;;;;;;10.23;3.15;;;10.10;99.90;;;;;;5092731;28;20067;-82
2022/11/05 09:58:54;;;;;;;11.15;3.33;;;10.20;99.90;;;;;;5092732;28;20474;-82
2022/11/05 10:01:29;;;;;;;8.15;3.33;;;10.20;99.90;;;;;;5075888;28;20040;-82
2022/11/05 10:03:59;;;;;;;8.73;3.35;;;10.40;99.90;;;;;;5091344;28;20036;-82
2022/11/05 10:06:26;;;;;;;8.15;3.22;;;10.50;99.90;;;;;;5091937;28;20505;-82
2022/11/05 10:09:30;;;;;;;8.07;3.47;;;10.60;99.90;;;;;;5075641;28;20493;-82
2022/11/05 10:12:03;;;;;;;7.78;3.83;;;10.70;99.90;;;;;;5057698;28;20515;-82
2022/11/05 10:14:37;;;;;;;6.70;3.03;;;10.80;99.90;;;;;;5092427;28;20401;-82
2022/11/05 10:17:14;;;;;;;9.00;3.00;;;10.90;99.90;;;;;;5092479;28;20040;-82
2022/11/05 10:19:48;;;;;;;7.45;3.15;;;11.00;99.90;;;;;;5092664;28;20071;-82
2022/11/05 10:22:16;;;;;;;10.15;2.83;;;11.00;99.90;;;;;;5091846;28;20474;-82
2022/11/05 10:24:47;;;;;;;8.25;2.95;;;11.10;99.90;;;;;;5075241;28;20032;-82
2022/11/05 10:27:22;;;;;;;6.65;2.63;;;11.20;99.90;;;;;;5093398;28;20044;-82
2022/11/05 10:29:49;;;;;;;10.40;2.53;;;11.30;99.90;;;;;;5092177;28;20093;-82
2022/11/05 10:32:29;;;;;;;11.38;2.58;;;11.40;99.90;;;;;;5075185;28;20093;-82
2022/11/05 10:34:58;;;;;;;7.88;3.13;;;11.50;99.90;;;;;;5091887;28;20048;-82
2022/11/05 10:37:24;;;;;;;9.75;3.22;;;11.60;99.90;;;;;;5091661;28;20089;-83
2022/11/05 10:39:50;;;;;;;11.43;3.03;;;11.70;99.90;;;;;;5074815;28;20082;-82
2022/11/05 10:43:08;;;;;;;11.15;3.63;;;11.80;99.90;;;;;;5092549;28;20071;-83
2022/11/05 10:45:46;;;;;;;10.60;2.95;;;11.90;99.90;;;;;;5082447;27;20532;-83
2022/11/05 10:48:24;;;;;;;9.48;2.70;;;12.00;99.90;;;;;;5090013;28;20040;-82
2022/11/05 10:50:50;;;;;;;8.63;2.80;;;12.10;99.90;;;;;;5073091;28;20135;-82
2022/11/05 10:53:35;;;;;;;9.88;3.28;;;12.30;99.90;;;;;;5091280;28;20139;-83
2022/11/05 10:56:01;;;;;;;8.27;2.78;;;12.30;99.90;;;;;;5074866;28;20086;-83
2022/11/05 10:58:29;;;;;;;7.78;3.08;;;12.40;99.90;;;;;;5074213;28;20062;-83
2022/11/05 11:00:54;;;;;;;11.75;4.55;;;12.50;99.90;;;;;;5091251;28;20028;-83
2022/11/05 11:03:42;;;;;;;9.68;2.90;;;12.70;99.90;;;;;;5091141;28;20064;-83
2022/11/05 11:06:23;;;;;;;11.98;3.17;;;12.60;99.90;;;;;;5091081;28;21590;-83
2022/11/05 11:08:51;;;;;;;8.00;3.00;;;12.70;99.90;;;;;;5090121;28;20032;-83
2022/11/05 11:11:36;;;;;;;7.00;3.10;;;12.70;99.90;;;;;;5088280;28;20051;-83
2022/11/05 11:14:10;;;;;;;7.93;2.83;;;12.70;99.90;;;;;;5088698;28;20398;-83
2022/11/05 11:16:39;;;;;;;9.63;3.60;;;12.70;99.90;;;;;;5087668;28;20053;-83
2022/11/05 11:19:22;;;;;;;11.07;5.00;;;12.70;99.90;;;;;;5090785;28;20540;-83
2022/11/05 11:22:09;;;;;;;11.32;3.25;;;12.80;99.90;;;;;;5089931;28;20036;-83
2022/11/05 11:24:43;;;;;;;7.72;2.70;;;12.80;99.90;;;;;;5073505;28;20071;-83
2022/11/05 11:27:12;;;;;;;9.85;3.10;;;12.80;99.90;;;;;;5073800;28;20040;-83
2022/11/05 11:29:41;;;;;;;7.63;2.92;;;12.80;99.90;;;;;;5070946;28;20040;-83
2022/11/05 11:32:17;;;;;;;11.05;3.45;;;12.80;99.90;;;;;;5070783;28;20033;-83
2022/11/05 11:34:44;;;;;;;10.65;3.90;;;12.90;99.90;;;;;;5104529;28;20044;-83
2022/11/05 11:37:15;;;;;;;7.03;2.60;;;13.00;99.90;;;;;;5087601;28;20036;-83
2022/11/05 11:39:46;;;;;;;7.32;2.53;;;12.90;99.90;;;;;;5087620;28;20086;-83
2022/11/05 11:42:35;;;;;;;6.85;2.75;;;13.00;99.90;;;;;;5070618;28;20434;-82
2022/11/05 11:45:13;;;;;;;5.55;2.22;;;13.20;99.90;;;;;;5070481;28;20053;-82
2022/11/05 11:47:42;;;;;;;11.25;3.53;;;13.30;99.90;;;;;;5070370;28;20119;-82
2022/11/05 11:50:41;;;;;;;11.23;3.90;;;13.40;99.90;;;;;;5087568;28;20481;-82
2022/11/05 11:53:19;;;;;;;7.70;2.85;;;13.40;99.90;;;;;;5070360;28;20447;-82
2022/11/05 11:55:58;;;;;;;9.73;3.17;;;13.30;99.90;;;;;;5070394;28;20076;-82
2022/11/05 11:58:36;;;;;;;8.65;3.05;;;13.20;99.90;;;;;;5087252;28;20498;-82
2022/11/05 12:01:08;;;;;;;7.38;2.88;;;13.20;99.90;;;;;;5070515;28;20059;-82
2022/11/05 12:03:58;;;;;;;11.02;3.30;;;13.10;99.90;;;;;;5069927;28;20090;-82
2022/11/05 12:06:59;;;;;;;10.27;4.30;;;12.90;99.90;;;;;;5103497;28;20052;-82
2022/11/05 12:09:46;;;;;;;7.22;3.25;;;12.90;99.90;;;;;;5087275;28;20056;-82
2022/11/05 12:12:14;;;;;;;8.60;2.95;;;12.70;99.90;;;;;;5086773;28;20051;-82
2022/11/05 12:14:44;;;;;;;11.40;4.20;;;12.60;99.90;;;;;;5070162;28;20032;-83
2022/11/05 12:17:49;;;;;;;9.45;2.72;;;12.70;99.90;;;;;;5070367;28;20045;-83
2022/11/05 12:20:36;;;;;;;9.95;2.78;;;12.60;99.90;;;;;;5088081;28;20045;-82
2022/11/05 12:23:23;;;;;;;9.05;3.33;;;12.50;99.90;;;;;;5086790;28;20080;-83
2022/11/05 12:26:00;;;;;;;9.15;2.97;;;12.40;99.90;;;;;;5070248;28;20040;-83
2022/11/05 12:28:45;;;;;;;8.32;2.80;;;12.30;99.90;;;;;;5088324;28;20044;-82
2022/11/05 12:31:30;;;;;;;8.48;2.83;;;12.20;99.90;;;;;;5077559;28;20040;-82
2022/11/05 12:34:18;;;;;;;8.35;2.63;;;12.20;99.90;;;;;;5079131;28;20525;-82
2022/11/05 12:37:13;;;;;;;8.90;3.10;;;12.20;99.90;;;;;;5116366;27;20040;-83
2022/11/05 12:40:06;;;;;;;8.75;2.63;;;12.20;99.90;;;;;;5116049;27;20402;-82
2022/11/05 12:42:51;;;;;;;;;;;12.20;99.90;;;;;;5093113;28;20478;-82
2022/11/05 12:45:39;;;;;;;7.20;2.20;;;12.20;99.90;;;;;;5092999;28;19916;-82
2022/11/05 12:48:14;;;;;;;14.52;2.55;;;12.30;99.90;;;;;;5075453;28;20067;-82
2022/11/05 12:50:49;;;;;;;8.38;2.58;;;12.30;99.90;;;;;;5091563;28;20076;-82
2022/11/05 12:53:44;;;;;;;7.60;2.70;;;12.30;99.90;;;;;;5092990;28;20046;-82
2022/11/05 12:56:30;;;;;;;8.55;2.88;;;12.30;99.90;;;;;;5094229;28;20040;-83
2022/11/05 12:59:17;;;;;;;6.95;2.55;;;12.30;99.90;;;;;;5093759;28;20039;-82
2022/11/05 13:01:47;;;;;;;7.50;2.45;;;12.30;99.90;;;;;;5093829;28;20040;-83
2022/11/05 13:04:50;;;;;;;6.97;2.90;;;12.40;99.90;;;;;;5093759;28;20036;-82
2022/11/05 13:07:23;;;;;;;9.07;3.20;;;12.40;99.90;;;;;;5094025;28;20044;-82
2022/11/05 13:09:56;;;;;;;7.90;2.97;;;12.40;99.90;;;;;;5093808;28;20032;-82
2022/11/05 13:12:26;;;;;;;9.82;3.67;;;12.40;99.90;;;;;;5093505;28;20480;-83
2022/11/05 13:15:14;;;;;;;11.25;4.80;;;12.40;99.90;;;;;;5076911;28;20390;-82
2022/11/05 13:17:52;;;;;;;8.02;3.60;;;12.60;99.90;;;;;;5076598;28;20040;-82
2022/11/05 13:20:25;;;;;;;9.43;3.17;;;12.50;99.90;;;;;;5093574;28;20131;-82
2022/11/05 13:22:56;;;;;;;;;;;12.50;99.90;;;;;;5076595;28;20071;-83
2022/11/05 13:25:26;;;;;;;8.57;2.88;;;12.50;99.90;;;;;;5093677;28;20368;-83
2022/11/05 13:28:13;;;;;;;8.15;2.83;;;12.50;99.90;;;;;;5093245;28;20040;-82
2022/11/05 13:30:50;;;;;;;11.55;3.17;;;12.50;99.90;;;;;;5093646;28;20512;-83
2022/11/05 13:33:32;;;;;;;11.32;3.97;;;12.50;99.90;;;;;;5092841;28;20032;-83
2022/11/05 13:39:09;;;;;;;12.80;3.85;;;12.50;99.90;;;;;;5092809;28;20040;-83
2022/11/05 13:42:03;;;;;;;12.80;3.60;;;12.40;99.90;;;;;;5076296;28;20122;-83
2022/11/05 13:44:56;;;;;;;13.63;3.83;;;12.40;99.90;;;;;;5092905;28;20047;-84
2022/11/05 13:47:37;;;;;;;10.10;3.97;;;12.30;99.90;;;;;;5093251;28;20119;-83
2022/11/05 13:50:25;;;;;;;9.07;3.42;;;12.30;99.90;;;;;;5092704;28;20404;-84
2022/11/05 13:52:57;;;;;;;11.18;3.92;;;12.20;99.90;;;;;;5075837;28;20257;-83
2022/11/05 13:55:31;;;;;;;8.98;3.92;;;12.20;99.90;;;;;;5075727;28;20119;-84
2022/11/05 13:58:03;;;;;;;8.73;3.63;;;12.10;99.90;;;;;;5092659;28;20082;-83